sensor_id;sensor_type;location;lat;lon;timestamp;P1;durP1;ratioP1;P2;durP2;ratioP2
14766;SDS011;7475;53.558;9.970;2023-04-25T00:01:00;13.23;;;5.78;;
14766;SDS011;7475;53.558;9.970;2023-04-25T00:03:27;8.63;;;4.90;;
14766;SDS011;7475;53.558;9.970;2023-04-25T00:05:52;11.65;;;5.13;;
14766;SDS011;7475;53.558;9.970;2023-04-25T00:08:17;8.23;;;4.63;;
14766;SDS011;7475;53.558;9.970;2023-04-25T00:10:42;12.35;;;4.95;;
14766;SDS011;7475;53.558;9.970;2023-04-25T00:13:08;19.08;;;5.13;;
14766;SDS011;7475;53.558;9.970;2023-04-25T00:15:33;14.85;;;4.85;;
14766;SDS011;7475;53.558;9.970;2023-04-25T00:17:58;16.13;;;4.55;;
14766;SDS011;7475;53.558;9.970;2023-04-25T00:20:23;26.23;;;5.93;;
14766;SDS011;7475;53.558;9.970;2023-04-25T00:22:49;20.02;;;5.55;;
14766;SDS011;7475;53.558;9.970;2023-04-25T00:25:14;20.73;;;5.32;;
14766;SDS011;7475;53.558;9.970;2023-04-25T00:27:40;17.23;;;5.47;;
14766;SDS011;7475;53.558;9.970;2023-04-25T00:30:06;19.85;;;4.65;;
14766;SDS011;7475;53.558;9.970;2023-04-25T00:32:32;21.38;;;4.85;;
14766;SDS011;7475;53.558;9.970;2023-04-25T00:34:57;20.05;;;5.22;;
14766;SDS011;7475;53.558;9.970;2023-04-25T00:37:23;18.00;;;4.40;;
14766;SDS011;7475;53.558;9.970;2023-04-25T00:39:48;23.60;;;4.82;;
14766;SDS011;7475;53.558;9.970;2023-04-25T00:42:13;23.20;;;4.68;;
14766;SDS011;7475;53.558;9.970;2023-04-25T00:44:38;22.80;;;4.60;;
14766;SDS011;7475;53.558;9.970;2023-04-25T00:47:04;21.27;;;4.43;;
14766;SDS011;7475;53.558;9.970;2023-04-25T00:49:29;19.40;;;4.15;;
14766;SDS011;7475;53.558;9.970;2023-04-25T00:51:55;21.42;;;4.13;;
14766;SDS011;7475;53.558;9.970;2023-04-25T00:54:20;17.92;;;4.80;;
14766;SDS011;7475;53.558;9.970;2023-04-25T00:56:45;21.65;;;4.20;;
14766;SDS011;7475;53.558;9.970;2023-04-25T00:59:10;27.95;;;4.57;;
14766;SDS011;7475;53.558;9.970;2023-04-25T01:01:36;18.67;;;4.63;;
14766;SDS011;7475;53.558;9.970;2023-04-25T01:04:02;27.65;;;5.18;;
14766;SDS011;7475;53.558;9.970;2023-04-25T01:06:27;24.63;;;4.55;;
14766;SDS011;7475;53.558;9.970;2023-04-25T01:08:53;24.60;;;4.63;;
14766;SDS011;7475;53.558;9.970;2023-04-25T01:11:18;18.33;;;4.10;;
14766;SDS011;7475;53.558;9.970;2023-04-25T01:13:43;19.13;;;4.65;;
14766;SDS011;7475;53.558;9.970;2023-04-25T01:16:09;22.38;;;4.53;;
14766;SDS011;7475;53.558;9.970;2023-04-25T01:18:34;24.40;;;4.60;;
14766;SDS011;7475;53.558;9.970;2023-04-25T01:21:06;18.33;;;4.00;;
14766;SDS011;7475;53.558;9.970;2023-04-25T01:23:32;19.45;;;4.13;;
14766;SDS011;7475;53.558;9.970;2023-04-25T01:25:58;21.95;;;3.80;;
14766;SDS011;7475;53.558;9.970;2023-04-25T01:28:23;22.25;;;4.65;;
14766;SDS011;7475;53.558;9.970;2023-04-25T01:30:48;19.88;;;4.30;;
14766;SDS011;7475;53.558;9.970;2023-04-25T01:33:14;22.40;;;4.50;;
14766;SDS011;7475;53.558;9.970;2023-04-25T01:35:40;25.00;;;5.05;;
14766;SDS011;7475;53.558;9.970;2023-04-25T01:38:05;23.42;;;5.70;;
14766;SDS011;7475;53.558;9.970;2023-04-25T01:40:30;23.48;;;4.63;;
14766;SDS011;7475;53.558;9.970;2023-04-25T01:42:56;23.63;;;4.45;;
14766;SDS011;7475;53.558;9.970;2023-04-25T01:45:21;27.05;;;5.25;;
14766;SDS011;7475;53.558;9.970;2023-04-25T01:47:46;22.55;;;6.40;;
14766;SDS011;7475;53.558;9.970;2023-04-25T01:50:15;19.95;;;4.28;;
14766;SDS011;7475;53.558;9.970;2023-04-25T01:52:40;20.33;;;4.57;;
14766;SDS011;7475;53.558;9.970;2023-04-25T01:55:05;26.00;;;4.97;;
14766;SDS011;7475;53.558;9.970;2023-04-25T01:57:31;19.88;;;4.40;;
14766;SDS011;7475;53.558;9.970;2023-04-25T02:00:00;20.73;;;4.38;;
14766;SDS011;7475;53.558;9.970;2023-04-25T02:02:25;28.08;;;5.18;;
14766;SDS011;7475;53.558;9.970;2023-04-25T02:04:51;26.40;;;5.18;;
14766;SDS011;7475;53.558;9.970;2023-04-25T02:07:16;21.38;;;4.40;;
14766;SDS011;7475;53.558;9.970;2023-04-25T02:09:41;25.13;;;4.65;;
14766;SDS011;7475;53.558;9.970;2023-04-25T02:12:07;18.17;;;4.30;;
14766;SDS011;7475;53.558;9.970;2023-04-25T02:14:32;21.73;;;4.97;;
14766;SDS011;7475;53.558;9.970;2023-04-25T02:16:57;25.33;;;4.70;;
14766;SDS011;7475;53.558;9.970;2023-04-25T02:19:23;17.10;;;4.40;;
14766;SDS011;7475;53.558;9.970;2023-04-25T02:21:48;17.65;;;3.85;;
14766;SDS011;7475;53.558;9.970;2023-04-25T02:24:13;18.00;;;4.50;;
14766;SDS011;7475;53.558;9.970;2023-04-25T02:26:38;18.48;;;3.95;;
14766;SDS011;7475;53.558;9.970;2023-04-25T02:29:04;18.60;;;4.03;;
14766;SDS011;7475;53.558;9.970;2023-04-25T02:31:29;23.30;;;4.40;;
14766;SDS011;7475;53.558;9.970;2023-04-25T02:33:54;22.38;;;4.53;;
14766;SDS011;7475;53.558;9.970;2023-04-25T02:36:19;19.75;;;4.25;;
14766;SDS011;7475;53.558;9.970;2023-04-25T02:38:44;18.40;;;3.88;;
14766;SDS011;7475;53.558;9.970;2023-04-25T02:41:10;22.83;;;4.68;;
14766;SDS011;7475;53.558;9.970;2023-04-25T02:43:35;22.85;;;4.28;;
14766;SDS011;7475;53.558;9.970;2023-04-25T02:46:00;20.15;;;4.70;;
14766;SDS011;7475;53.558;9.970;2023-04-25T02:48:25;22.67;;;4.30;;
14766;SDS011;7475;53.558;9.970;2023-04-25T02:50:50;14.07;;;3.80;;
14766;SDS011;7475;53.558;9.970;2023-04-25T02:53:16;16.52;;;3.92;;
14766;SDS011;7475;53.558;9.970;2023-04-25T02:55:41;16.83;;;3.53;;
14766;SDS011;7475;53.558;9.970;2023-04-25T02:58:06;19.67;;;4.03;;
14766;SDS011;7475;53.558;9.970;2023-04-25T03:00:32;21.27;;;4.10;;
14766;SDS011;7475;53.558;9.970;2023-04-25T03:02:57;18.80;;;4.22;;
14766;SDS011;7475;53.558;9.970;2023-04-25T03:05:22;23.73;;;3.83;;
14766;SDS011;7475;53.558;9.970;2023-04-25T03:07:47;16.63;;;4.03;;
14766;SDS011;7475;53.558;9.970;2023-04-25T03:10:13;17.50;;;4.50;;
14766;SDS011;7475;53.558;9.970;2023-04-25T03:12:38;20.27;;;4.30;;
14766;SDS011;7475;53.558;9.970;2023-04-25T03:15:03;18.75;;;4.13;;
14766;SDS011;7475;53.558;9.970;2023-04-25T03:17:29;15.05;;;3.35;;
14766;SDS011;7475;53.558;9.970;2023-04-25T03:19:54;17.35;;;3.95;;
14766;SDS011;7475;53.558;9.970;2023-04-25T03:22:20;15.02;;;4.05;;
14766;SDS011;7475;53.558;9.970;2023-04-25T03:24:45;18.30;;;3.90;;
14766;SDS011;7475;53.558;9.970;2023-04-25T03:27:10;15.00;;;3.35;;
14766;SDS011;7475;53.558;9.970;2023-04-25T03:29:35;16.98;;;3.85;;
14766;SDS011;7475;53.558;9.970;2023-04-25T03:32:01;18.30;;;3.58;;
14766;SDS011;7475;53.558;9.970;2023-04-25T03:34:26;15.10;;;3.30;;
14766;SDS011;7475;53.558;9.970;2023-04-25T03:36:51;16.13;;;3.47;;
14766;SDS011;7475;53.558;9.970;2023-04-25T03:39:16;15.10;;;3.72;;
14766;SDS011;7475;53.558;9.970;2023-04-25T03:41:41;15.40;;;3.50;;
14766;SDS011;7475;53.558;9.970;2023-04-25T03:44:07;18.13;;;3.65;;
14766;SDS011;7475;53.558;9.970;2023-04-25T03:46:32;18.40;;;3.90;;
14766;SDS011;7475;53.558;9.970;2023-04-25T03:48:57;22.77;;;5.32;;
14766;SDS011;7475;53.558;9.970;2023-04-25T03:51:22;15.48;;;3.15;;
14766;SDS011;7475;53.558;9.970;2023-04-25T03:53:48;17.63;;;3.60;;
14766;SDS011;7475;53.558;9.970;2023-04-25T03:56:13;17.23;;;3.33;;
14766;SDS011;7475;53.558;9.970;2023-04-25T03:58:38;14.77;;;3.92;;
14766;SDS011;7475;53.558;9.970;2023-04-25T04:01:03;24.52;;;4.45;;
14766;SDS011;7475;53.558;9.970;2023-04-25T04:03:32;12.38;;;3.10;;
14766;SDS011;7475;53.558;9.970;2023-04-25T04:05:57;13.55;;;2.88;;
14766;SDS011;7475;53.558;9.970;2023-04-25T04:08:22;12.30;;;3.58;;
14766;SDS011;7475;53.558;9.970;2023-04-25T04:10:47;16.60;;;3.20;;
14766;SDS011;7475;53.558;9.970;2023-04-25T04:13:13;13.90;;;3.83;;
14766;SDS011;7475;53.558;9.970;2023-04-25T04:15:38;14.27;;;2.70;;
14766;SDS011;7475;53.558;9.970;2023-04-25T04:18:03;17.02;;;2.90;;
14766;SDS011;7475;53.558;9.970;2023-04-25T04:20:29;14.48;;;2.78;;
14766;SDS011;7475;53.558;9.970;2023-04-25T04:22:55;20.58;;;3.60;;
14766;SDS011;7475;53.558;9.970;2023-04-25T04:25:20;15.52;;;3.28;;
14766;SDS011;7475;53.558;9.970;2023-04-25T04:27:45;10.30;;;2.50;;
14766;SDS011;7475;53.558;9.970;2023-04-25T04:30:11;17.63;;;3.30;;
14766;SDS011;7475;53.558;9.970;2023-04-25T04:32:36;16.90;;;3.08;;
14766;SDS011;7475;53.558;9.970;2023-04-25T04:35:01;13.35;;;3.25;;
14766;SDS011;7475;53.558;9.970;2023-04-25T04:37:26;20.75;;;3.35;;
14766;SDS011;7475;53.558;9.970;2023-04-25T04:39:51;14.77;;;3.30;;
14766;SDS011;7475;53.558;9.970;2023-04-25T04:42:17;18.65;;;3.10;;
14766;SDS011;7475;53.558;9.970;2023-04-25T04:44:42;16.25;;;2.92;;
14766;SDS011;7475;53.558;9.970;2023-04-25T04:47:09;14.40;;;3.50;;
14766;SDS011;7475;53.558;9.970;2023-04-25T04:49:35;12.50;;;2.80;;
14766;SDS011;7475;53.558;9.970;2023-04-25T04:52:01;15.52;;;3.40;;
14766;SDS011;7475;53.558;9.970;2023-04-25T04:54:26;13.95;;;2.80;;
14766;SDS011;7475;53.558;9.970;2023-04-25T04:56:52;15.25;;;3.05;;
14766;SDS011;7475;53.558;9.970;2023-04-25T04:59:17;12.68;;;2.88;;
14766;SDS011;7475;53.558;9.970;2023-04-25T05:01:42;12.32;;;3.28;;
14766;SDS011;7475;53.558;9.970;2023-04-25T05:04:07;13.80;;;2.72;;
14766;SDS011;7475;53.558;9.970;2023-04-25T05:06:33;13.80;;;3.67;;
14766;SDS011;7475;53.558;9.970;2023-04-25T05:08:58;17.55;;;3.10;;
14766;SDS011;7475;53.558;9.970;2023-04-25T05:11:24;11.95;;;2.75;;
14766;SDS011;7475;53.558;9.970;2023-04-25T05:13:51;12.18;;;3.40;;
14766;SDS011;7475;53.558;9.970;2023-04-25T05:16:16;12.60;;;2.90;;
14766;SDS011;7475;53.558;9.970;2023-04-25T05:18:41;11.93;;;2.65;;
14766;SDS011;7475;53.558;9.970;2023-04-25T05:21:06;16.90;;;4.80;;
14766;SDS011;7475;53.558;9.970;2023-04-25T05:23:32;11.25;;;2.75;;
14766;SDS011;7475;53.558;9.970;2023-04-25T05:25:57;13.55;;;3.30;;
14766;SDS011;7475;53.558;9.970;2023-04-25T05:28:23;13.50;;;2.40;;
14766;SDS011;7475;53.558;9.970;2023-04-25T05:30:48;15.98;;;3.05;;
14766;SDS011;7475;53.558;9.970;2023-04-25T05:33:13;12.70;;;2.55;;
14766;SDS011;7475;53.558;9.970;2023-04-25T05:35:38;15.27;;;3.20;;
14766;SDS011;7475;53.558;9.970;2023-04-25T05:38:04;15.15;;;3.42;;
14766;SDS011;7475;53.558;9.970;2023-04-25T05:40:29;14.25;;;3.03;;
14766;SDS011;7475;53.558;9.970;2023-04-25T05:42:54;10.90;;;2.63;;
14766;SDS011;7475;53.558;9.970;2023-04-25T05:45:19;14.88;;;3.28;;
14766;SDS011;7475;53.558;9.970;2023-04-25T05:47:45;12.30;;;3.20;;
14766;SDS011;7475;53.558;9.970;2023-04-25T05:50:10;14.07;;;2.88;;
14766;SDS011;7475;53.558;9.970;2023-04-25T05:52:35;15.70;;;2.95;;
14766;SDS011;7475;53.558;9.970;2023-04-25T05:55:00;12.30;;;2.88;;
14766;SDS011;7475;53.558;9.970;2023-04-25T05:57:26;13.45;;;2.75;;
14766;SDS011;7475;53.558;9.970;2023-04-25T05:59:53;9.98;;;2.60;;
14766;SDS011;7475;53.558;9.970;2023-04-25T06:02:19;14.40;;;2.88;;
14766;SDS011;7475;53.558;9.970;2023-04-25T06:04:45;11.80;;;2.70;;
14766;SDS011;7475;53.558;9.970;2023-04-25T06:07:10;9.30;;;2.95;;
14766;SDS011;7475;53.558;9.970;2023-04-25T06:09:36;16.40;;;3.05;;
14766;SDS011;7475;53.558;9.970;2023-04-25T06:12:01;8.75;;;2.50;;
14766;SDS011;7475;53.558;9.970;2023-04-25T06:14:26;15.13;;;3.47;;
14766;SDS011;7475;53.558;9.970;2023-04-25T06:16:52;10.18;;;2.47;;
14766;SDS011;7475;53.558;9.970;2023-04-25T06:19:17;10.75;;;2.47;;
14766;SDS011;7475;53.558;9.970;2023-04-25T06:21:43;9.40;;;3.03;;
14766;SDS011;7475;53.558;9.970;2023-04-25T06:24:08;14.88;;;2.80;;
14766;SDS011;7475;53.558;9.970;2023-04-25T06:26:33;13.87;;;2.60;;
14766;SDS011;7475;53.558;9.970;2023-04-25T06:28:58;9.25;;;2.65;;
14766;SDS011;7475;53.558;9.970;2023-04-25T06:31:24;9.50;;;2.42;;
14766;SDS011;7475;53.558;9.970;2023-04-25T06:33:50;13.95;;;3.70;;
14766;SDS011;7475;53.558;9.970;2023-04-25T06:36:15;19.60;;;3.67;;
14766;SDS011;7475;53.558;9.970;2023-04-25T06:38:40;12.93;;;2.70;;
14766;SDS011;7475;53.558;9.970;2023-04-25T06:41:05;9.63;;;2.60;;
14766;SDS011;7475;53.558;9.970;2023-04-25T06:43:31;7.30;;;2.13;;
14766;SDS011;7475;53.558;9.970;2023-04-25T06:45:58;13.65;;;2.90;;
14766;SDS011;7475;53.558;9.970;2023-04-25T06:48:23;9.35;;;2.88;;
14766;SDS011;7475;53.558;9.970;2023-04-25T06:50:49;12.07;;;2.58;;
14766;SDS011;7475;53.558;9.970;2023-04-25T06:53:14;10.35;;;3.85;;
14766;SDS011;7475;53.558;9.970;2023-04-25T06:55:39;8.77;;;2.80;;
14766;SDS011;7475;53.558;9.970;2023-04-25T06:58:05;11.15;;;2.63;;
14766;SDS011;7475;53.558;9.970;2023-04-25T07:00:30;10.53;;;2.23;;
14766;SDS011;7475;53.558;9.970;2023-04-25T07:02:55;11.55;;;2.53;;
14766;SDS011;7475;53.558;9.970;2023-04-25T07:05:21;8.10;;;1.98;;
14766;SDS011;7475;53.558;9.970;2023-04-25T07:07:46;6.78;;;2.20;;
14766;SDS011;7475;53.558;9.970;2023-04-25T07:10:11;13.23;;;5.70;;
14766;SDS011;7475;53.558;9.970;2023-04-25T07:12:36;11.57;;;3.17;;
14766;SDS011;7475;53.558;9.970;2023-04-25T07:15:01;10.95;;;2.60;;
14766;SDS011;7475;53.558;9.970;2023-04-25T07:17:30;7.75;;;2.63;;
14766;SDS011;7475;53.558;9.970;2023-04-25T07:19:56;12.07;;;2.38;;
14766;SDS011;7475;53.558;9.970;2023-04-25T07:22:21;11.25;;;2.40;;
14766;SDS011;7475;53.558;9.970;2023-04-25T07:24:46;10.75;;;2.30;;
14766;SDS011;7475;53.558;9.970;2023-04-25T07:27:13;7.75;;;2.28;;
14766;SDS011;7475;53.558;9.970;2023-04-25T07:29:38;14.40;;;2.75;;
14766;SDS011;7475;53.558;9.970;2023-04-25T07:32:04;9.70;;;2.28;;
14766;SDS011;7475;53.558;9.970;2023-04-25T07:34:29;7.70;;;1.80;;
14766;SDS011;7475;53.558;9.970;2023-04-25T07:36:55;8.77;;;2.47;;
14766;SDS011;7475;53.558;9.970;2023-04-25T07:39:20;7.47;;;2.30;;
14766;SDS011;7475;53.558;9.970;2023-04-25T07:41:46;11.15;;;2.20;;
14766;SDS011;7475;53.558;9.970;2023-04-25T07:44:11;12.68;;;2.83;;
14766;SDS011;7475;53.558;9.970;2023-04-25T07:46:36;14.48;;;2.88;;
14766;SDS011;7475;53.558;9.970;2023-04-25T07:49:01;14.13;;;2.47;;
14766;SDS011;7475;53.558;9.970;2023-04-25T07:51:27;6.57;;;2.05;;
14766;SDS011;7475;53.558;9.970;2023-04-25T07:53:52;10.05;;;2.08;;
14766;SDS011;7475;53.558;9.970;2023-04-25T07:56:17;9.15;;;2.00;;
14766;SDS011;7475;53.558;9.970;2023-04-25T07:58:43;11.43;;;2.35;;
14766;SDS011;7475;53.558;9.970;2023-04-25T08:01:08;11.73;;;2.07;;
14766;SDS011;7475;53.558;9.970;2023-04-25T08:03:33;8.43;;;2.20;;
14766;SDS011;7475;53.558;9.970;2023-04-25T08:05:58;7.80;;;2.17;;
14766;SDS011;7475;53.558;9.970;2023-04-25T08:08:23;10.18;;;2.13;;
14766;SDS011;7475;53.558;9.970;2023-04-25T08:10:49;9.93;;;2.20;;
14766;SDS011;7475;53.558;9.970;2023-04-25T08:13:14;11.50;;;2.28;;
14766;SDS011;7475;53.558;9.970;2023-04-25T08:15:39;7.50;;;2.60;;
14766;SDS011;7475;53.558;9.970;2023-04-25T08:18:04;8.27;;;2.17;;
14766;SDS011;7475;53.558;9.970;2023-04-25T08:20:30;10.02;;;2.13;;
14766;SDS011;7475;53.558;9.970;2023-04-25T08:22:55;9.95;;;2.05;;
14766;SDS011;7475;53.558;9.970;2023-04-25T08:25:21;8.68;;;1.92;;
14766;SDS011;7475;53.558;9.970;2023-04-25T08:27:46;7.97;;;1.65;;
14766;SDS011;7475;53.558;9.970;2023-04-25T08:30:11;8.90;;;1.75;;
14766;SDS011;7475;53.558;9.970;2023-04-25T08:32:36;9.18;;;2.10;;
14766;SDS011;7475;53.558;9.970;2023-04-25T08:35:03;12.43;;;3.13;;
14766;SDS011;7475;53.558;9.970;2023-04-25T08:37:29;12.13;;;2.03;;
14766;SDS011;7475;53.558;9.970;2023-04-25T08:39:54;9.80;;;2.00;;
14766;SDS011;7475;53.558;9.970;2023-04-25T08:42:21;9.02;;;1.85;;
14766;SDS011;7475;53.558;9.970;2023-04-25T08:44:46;10.25;;;1.75;;
14766;SDS011;7475;53.558;9.970;2023-04-25T08:47:13;9.25;;;1.80;;
14766;SDS011;7475;53.558;9.970;2023-04-25T08:49:38;6.85;;;1.80;;
14766;SDS011;7475;53.558;9.970;2023-04-25T08:52:04;7.75;;;1.77;;
14766;SDS011;7475;53.558;9.970;2023-04-25T08:54:31;7.63;;;1.70;;
14766;SDS011;7475;53.558;9.970;2023-04-25T08:56:57;10.82;;;2.10;;
14766;SDS011;7475;53.558;9.970;2023-04-25T08:59:26;8.73;;;2.05;;
14766;SDS011;7475;53.558;9.970;2023-04-25T09:01:52;9.30;;;1.88;;
14766;SDS011;7475;53.558;9.970;2023-04-25T09:04:17;7.20;;;1.55;;
14766;SDS011;7475;53.558;9.970;2023-04-25T09:06:42;5.82;;;1.30;;
14766;SDS011;7475;53.558;9.970;2023-04-25T09:09:08;7.03;;;1.52;;
14766;SDS011;7475;53.558;9.970;2023-04-25T09:11:34;5.68;;;1.60;;
14766;SDS011;7475;53.558;9.970;2023-04-25T09:14:17;5.28;;;1.52;;
14766;SDS011;7475;53.558;9.970;2023-04-25T09:21:59;7.72;;;1.63;;
14766;SDS011;7475;53.558;9.970;2023-04-25T09:24:31;6.88;;;1.70;;
14766;SDS011;7475;53.558;9.970;2023-04-25T09:26:57;6.90;;;1.27;;
14766;SDS011;7475;53.558;9.970;2023-04-25T09:29:28;9.38;;;2.08;;
14766;SDS011;7475;53.558;9.970;2023-04-25T09:31:54;10.48;;;3.28;;
14766;SDS011;7475;53.558;9.970;2023-04-25T09:34:38;4.97;;;2.05;;
14766;SDS011;7475;53.558;9.970;2023-04-25T09:37:04;8.77;;;1.83;;
14766;SDS011;7475;53.558;9.970;2023-04-25T09:39:29;7.47;;;2.20;;
14766;SDS011;7475;53.558;9.970;2023-04-25T09:41:54;7.13;;;1.60;;
14766;SDS011;7475;53.558;9.970;2023-04-25T09:44:23;6.70;;;1.77;;
14766;SDS011;7475;53.558;9.970;2023-04-25T09:46:49;8.05;;;2.08;;
14766;SDS011;7475;53.558;9.970;2023-04-25T09:49:19;6.70;;;1.63;;
14766;SDS011;7475;53.558;9.970;2023-04-25T09:51:53;5.38;;;1.60;;
14766;SDS011;7475;53.558;9.970;2023-04-25T09:54:18;5.45;;;1.52;;
14766;SDS011;7475;53.558;9.970;2023-04-25T09:56:44;5.15;;;1.70;;
14766;SDS011;7475;53.558;9.970;2023-04-25T09:59:12;7.95;;;2.10;;
14766;SDS011;7475;53.558;9.970;2023-04-25T10:01:38;6.75;;;1.98;;
14766;SDS011;7475;53.558;9.970;2023-04-25T10:04:04;8.38;;;2.00;;
14766;SDS011;7475;53.558;9.970;2023-04-25T10:06:31;9.25;;;3.15;;
14766;SDS011;7475;53.558;9.970;2023-04-25T10:08:58;5.80;;;1.52;;
14766;SDS011;7475;53.558;9.970;2023-04-25T10:11:23;6.50;;;1.60;;
14766;SDS011;7475;53.558;9.970;2023-04-25T10:13:49;6.13;;;2.30;;
14766;SDS011;7475;53.558;9.970;2023-04-25T10:16:15;3.47;;;1.65;;
14766;SDS011;7475;53.558;9.970;2023-04-25T10:18:41;6.43;;;1.98;;
14766;SDS011;7475;53.558;9.970;2023-04-25T10:21:06;3.22;;;1.33;;
14766;SDS011;7475;53.558;9.970;2023-04-25T10:23:31;8.30;;;2.08;;
14766;SDS011;7475;53.558;9.970;2023-04-25T10:25:57;9.05;;;4.68;;
14766;SDS011;7475;53.558;9.970;2023-04-25T10:28:22;15.32;;;8.68;;
14766;SDS011;7475;53.558;9.970;2023-04-25T10:31:00;6.03;;;2.20;;
14766;SDS011;7475;53.558;9.970;2023-04-25T10:33:29;8.43;;;5.00;;
14766;SDS011;7475;53.558;9.970;2023-04-25T10:35:57;5.10;;;2.85;;
14766;SDS011;7475;53.558;9.970;2023-04-25T10:38:22;5.95;;;2.33;;
14766;SDS011;7475;53.558;9.970;2023-04-25T10:41:02;6.85;;;3.38;;
14766;SDS011;7475;53.558;9.970;2023-04-25T10:45:55;5.90;;;2.13;;
14766;SDS011;7475;53.558;9.970;2023-04-25T10:48:30;7.53;;;2.20;;
14766;SDS011;7475;53.558;9.970;2023-04-25T10:51:11;15.63;;;11.38;;
14766;SDS011;7475;53.558;9.970;2023-04-25T10:53:36;8.55;;;3.80;;
14766;SDS011;7475;53.558;9.970;2023-04-25T10:56:18;7.78;;;3.15;;
14766;SDS011;7475;53.558;9.970;2023-04-25T10:58:44;10.18;;;3.10;;
14766;SDS011;7475;53.558;9.970;2023-04-25T11:01:10;5.32;;;2.20;;
14766;SDS011;7475;53.558;9.970;2023-04-25T11:03:40;4.72;;;1.60;;
14766;SDS011;7475;53.558;9.970;2023-04-25T11:06:06;4.75;;;1.80;;
14766;SDS011;7475;53.558;9.970;2023-04-25T11:08:37;6.47;;;1.80;;
14766;SDS011;7475;53.558;9.970;2023-04-25T11:11:06;6.70;;;1.98;;
14766;SDS011;7475;53.558;9.970;2023-04-25T11:13:32;4.90;;;1.50;;
14766;SDS011;7475;53.558;9.970;2023-04-25T11:15:58;9.00;;;3.63;;
14766;SDS011;7475;53.558;9.970;2023-04-25T11:18:25;10.40;;;5.30;;
14766;SDS011;7475;53.558;9.970;2023-04-25T11:20:50;7.82;;;4.63;;
14766;SDS011;7475;53.558;9.970;2023-04-25T11:23:16;5.82;;;2.80;;
14766;SDS011;7475;53.558;9.970;2023-04-25T11:25:41;6.33;;;2.20;;
14766;SDS011;7475;53.558;9.970;2023-04-25T11:28:07;5.43;;;1.83;;
14766;SDS011;7475;53.558;9.970;2023-04-25T11:30:32;6.57;;;2.27;;
14766;SDS011;7475;53.558;9.970;2023-04-25T11:32:57;5.47;;;1.50;;
14766;SDS011;7475;53.558;9.970;2023-04-25T11:35:22;4.30;;;1.50;;
14766;SDS011;7475;53.558;9.970;2023-04-25T11:37:50;5.85;;;1.60;;
14766;SDS011;7475;53.558;9.970;2023-04-25T11:40:15;4.18;;;1.63;;
14766;SDS011;7475;53.558;9.970;2023-04-25T11:42:44;4.03;;;1.53;;
14766;SDS011;7475;53.558;9.970;2023-04-25T11:45:09;3.28;;;1.10;;
14766;SDS011;7475;53.558;9.970;2023-04-25T11:47:35;3.38;;;1.20;;
14766;SDS011;7475;53.558;9.970;2023-04-25T11:50:04;4.13;;;1.60;;
14766;SDS011;7475;53.558;9.970;2023-04-25T11:52:40;5.03;;;1.38;;
14766;SDS011;7475;53.558;9.970;2023-04-25T11:55:15;5.53;;;1.17;;
14766;SDS011;7475;53.558;9.970;2023-04-25T11:57:41;5.55;;;2.20;;
14766;SDS011;7475;53.558;9.970;2023-04-25T12:02:34;5.88;;;1.73;;
14766;SDS011;7475;53.558;9.970;2023-04-25T12:04:59;5.15;;;2.53;;
14766;SDS011;7475;53.558;9.970;2023-04-25T12:07:28;3.93;;;1.87;;
14766;SDS011;7475;53.558;9.970;2023-04-25T12:09:55;3.63;;;1.60;;
14766;SDS011;7475;53.558;9.970;2023-04-25T12:12:20;7.53;;;1.42;;
14766;SDS011;7475;53.558;9.970;2023-04-25T12:14:46;4.22;;;1.30;;
14766;SDS011;7475;53.558;9.970;2023-04-25T12:17:13;4.85;;;1.88;;
14766;SDS011;7475;53.558;9.970;2023-04-25T12:19:38;8.57;;;1.50;;
14766;SDS011;7475;53.558;9.970;2023-04-25T12:22:18;4.68;;;1.30;;
14766;SDS011;7475;53.558;9.970;2023-04-25T12:24:45;6.57;;;1.40;;
14766;SDS011;7475;53.558;9.970;2023-04-25T12:27:10;5.03;;;1.30;;
14766;SDS011;7475;53.558;9.970;2023-04-25T12:29:35;3.00;;;1.37;;
14766;SDS011;7475;53.558;9.970;2023-04-25T12:32:01;5.70;;;1.38;;
14766;SDS011;7475;53.558;9.970;2023-04-25T12:34:26;4.35;;;1.20;;
14766;SDS011;7475;53.558;9.970;2023-04-25T12:36:52;5.23;;;1.70;;
14766;SDS011;7475;53.558;9.970;2023-04-25T12:39:18;4.07;;;1.35;;
14766;SDS011;7475;53.558;9.970;2023-04-25T12:41:44;8.15;;;1.77;;
14766;SDS011;7475;53.558;9.970;2023-04-25T12:44:10;7.50;;;1.60;;
14766;SDS011;7475;53.558;9.970;2023-04-25T12:46:36;4.72;;;1.55;;
14766;SDS011;7475;53.558;9.970;2023-04-25T12:49:01;5.07;;;1.58;;
14766;SDS011;7475;53.558;9.970;2023-04-25T12:51:28;5.82;;;1.75;;
14766;SDS011;7475;53.558;9.970;2023-04-25T12:53:53;8.15;;;2.10;;
14766;SDS011;7475;53.558;9.970;2023-04-25T12:56:18;6.40;;;1.98;;
14766;SDS011;7475;53.558;9.970;2023-04-25T12:58:44;6.57;;;1.70;;
14766;SDS011;7475;53.558;9.970;2023-04-25T13:01:09;7.30;;;1.63;;
14766;SDS011;7475;53.558;9.970;2023-04-25T13:03:34;3.78;;;1.40;;
14766;SDS011;7475;53.558;9.970;2023-04-25T13:05:59;4.93;;;1.63;;
14766;SDS011;7475;53.558;9.970;2023-04-25T13:08:25;7.00;;;1.60;;
14766;SDS011;7475;53.558;9.970;2023-04-25T13:10:51;6.93;;;1.67;;
14766;SDS011;7475;53.558;9.970;2023-04-25T13:13:16;8.18;;;1.60;;
14766;SDS011;7475;53.558;9.970;2023-04-25T13:15:42;5.03;;;1.73;;
14766;SDS011;7475;53.558;9.970;2023-04-25T13:18:07;5.63;;;1.37;;
14766;SDS011;7475;53.558;9.970;2023-04-25T13:20:32;5.10;;;1.48;;
14766;SDS011;7475;53.558;9.970;2023-04-25T13:22:57;5.28;;;1.90;;
14766;SDS011;7475;53.558;9.970;2023-04-25T13:25:22;5.27;;;1.47;;
14766;SDS011;7475;53.558;9.970;2023-04-25T13:27:48;4.28;;;1.45;;
14766;SDS011;7475;53.558;9.970;2023-04-25T13:30:13;4.80;;;2.00;;
14766;SDS011;7475;53.558;9.970;2023-04-25T13:32:38;6.28;;;1.48;;
14766;SDS011;7475;53.558;9.970;2023-04-25T13:35:05;5.22;;;1.70;;
14766;SDS011;7475;53.558;9.970;2023-04-25T13:37:30;3.88;;;1.40;;
14766;SDS011;7475;53.558;9.970;2023-04-25T13:39:58;9.25;;;1.75;;
14766;SDS011;7475;53.558;9.970;2023-04-25T13:42:23;4.28;;;1.80;;
14766;SDS011;7475;53.558;9.970;2023-04-25T13:44:48;4.00;;;1.40;;
14766;SDS011;7475;53.558;9.970;2023-04-25T13:47:14;4.47;;;1.80;;
14766;SDS011;7475;53.558;9.970;2023-04-25T13:49:39;6.87;;;3.27;;
14766;SDS011;7475;53.558;9.970;2023-04-25T13:52:04;4.50;;;2.00;;
14766;SDS011;7475;53.558;9.970;2023-04-25T13:54:30;4.70;;;1.55;;
14766;SDS011;7475;53.558;9.970;2023-04-25T13:56:55;6.50;;;1.70;;
14766;SDS011;7475;53.558;9.970;2023-04-25T13:59:23;3.22;;;1.50;;
14766;SDS011;7475;53.558;9.970;2023-04-25T14:01:48;5.90;;;1.58;;
14766;SDS011;7475;53.558;9.970;2023-04-25T14:04:14;4.03;;;1.52;;
14766;SDS011;7475;53.558;9.970;2023-04-25T14:06:39;4.30;;;1.85;;
14766;SDS011;7475;53.558;9.970;2023-04-25T14:09:04;8.75;;;2.03;;
14766;SDS011;7475;53.558;9.970;2023-04-25T14:11:31;7.40;;;1.35;;
14766;SDS011;7475;53.558;9.970;2023-04-25T14:13:56;9.82;;;2.08;;
14766;SDS011;7475;53.558;9.970;2023-04-25T14:16:21;8.57;;;1.80;;
14766;SDS011;7475;53.558;9.970;2023-04-25T14:18:48;5.50;;;1.30;;
14766;SDS011;7475;53.558;9.970;2023-04-25T14:21:14;5.57;;;1.50;;
14766;SDS011;7475;53.558;9.970;2023-04-25T14:23:39;9.50;;;1.92;;
14766;SDS011;7475;53.558;9.970;2023-04-25T14:26:05;4.93;;;1.50;;
14766;SDS011;7475;53.558;9.970;2023-04-25T14:28:30;5.40;;;1.52;;
14766;SDS011;7475;53.558;9.970;2023-04-25T14:30:55;7.70;;;1.70;;
14766;SDS011;7475;53.558;9.970;2023-04-25T14:33:21;7.70;;;2.03;;
14766;SDS011;7475;53.558;9.970;2023-04-25T14:35:46;7.95;;;2.00;;
14766;SDS011;7475;53.558;9.970;2023-04-25T14:38:12;6.80;;;1.77;;
14766;SDS011;7475;53.558;9.970;2023-04-25T14:40:37;5.28;;;1.77;;
14766;SDS011;7475;53.558;9.970;2023-04-25T14:43:03;7.68;;;2.35;;
14766;SDS011;7475;53.558;9.970;2023-04-25T14:45:28;5.72;;;1.70;;
14766;SDS011;7475;53.558;9.970;2023-04-25T14:47:53;6.07;;;1.87;;
14766;SDS011;7475;53.558;9.970;2023-04-25T14:50:18;5.73;;;2.00;;
14766;SDS011;7475;53.558;9.970;2023-04-25T14:52:44;4.35;;;1.38;;
14766;SDS011;7475;53.558;9.970;2023-04-25T14:55:10;4.13;;;1.77;;
14766;SDS011;7475;53.558;9.970;2023-04-25T14:57:35;3.22;;;1.50;;